Time;durP1;ratioP1;P1;durP2;ratioP2;P2;SDS_P1;SDS_P2;PMS_P1;PMS_P2;Temp;Humidity;BMP_temperature;BMP_pressure;BME280_temperature;BME280_humidity;BME280_pressure;Samples;Min_cycle;Max_cycle;Signal;HPM_P1;HPM_P2
2022/06/23 00:01:28;;;;;;;4.60;3.77;;;16.90;96.10;;;;;;5117013;28;20498;-77
2022/06/23 00:03:58;;;;;;;3.80;3.50;;;16.80;96.10;;;;;;5135886;28;20421;-77
2022/06/23 00:06:41;;;;;;;4.17;3.77;;;16.80;96.20;;;;;;5136941;28;20415;-78
2022/06/23 00:09:38;;;;;;;4.00;3.20;;;16.80;96.40;;;;;;5118365;28;20808;-78
2022/06/23 00:12:29;;;;;;;3.63;3.33;;;16.70;96.40;;;;;;5118298;28;20439;-77
2022/06/23 00:15:18;;;;;;;4.00;3.63;;;16.70;96.50;;;;;;5117564;28;20446;-77
2022/06/23 00:17:48;;;;;;;3.83;3.53;;;16.70;96.50;;;;;;5117123;28;20466;-78
2022/06/23 00:20:21;;;;;;;3.90;3.50;;;16.60;96.50;;;;;;5137177;28;20943;-78
2022/06/23 00:22:53;;;;;;;3.70;3.13;;;16.60;96.70;;;;;;5117187;28;20508;-78
2022/06/23 00:25:35;;;;;;;4.50;3.63;;;16.60;96.80;;;;;;5117908;28;20515;-78
2022/06/23 00:28:03;;;;;;;4.13;3.80;;;16.60;96.90;;;;;;5135944;28;20489;-77
2022/06/23 00:30:38;;;;;;;6.03;4.13;;;16.50;96.90;;;;;;5134855;28;20434;-79
2022/06/23 00:33:08;;;;;;;3.80;3.37;;;16.50;97.00;;;;;;5117693;28;20405;-77
2022/06/23 00:35:36;;;;;;;4.03;3.40;;;16.50;97.10;;;;;;5117911;28;20448;-77
2022/06/23 00:38:04;;;;;;;3.93;3.63;;;16.40;97.20;;;;;;5117782;28;20466;-79
2022/06/23 00:40:34;;;;;;;4.53;4.13;;;16.40;97.20;;;;;;5136345;28;20466;-77
2022/06/23 00:43:04;;;;;;;4.40;4.00;;;16.40;97.30;;;;;;5136007;28;20528;-78
2022/06/23 00:45:39;;;;;;;4.10;3.77;;;16.40;97.30;;;;;;5117320;28;20417;-78
2022/06/23 00:48:15;;;;;;;4.97;4.47;;;16.30;97.40;;;;;;5136119;28;20473;-77
2022/06/23 00:50:50;;;;;;;4.83;4.33;;;16.30;97.40;;;;;;5136769;27;20405;-77
2022/06/23 00:53:24;;;;;;;4.93;4.40;;;16.30;97.50;;;;;;5140139;27;20396;-77
2022/06/23 00:56:01;;;;;;;5.63;4.97;;;16.20;97.50;;;;;;5121403;27;20441;-77
2022/06/23 00:58:40;;;;;;;5.10;4.70;;;16.20;97.70;;;;;;5140028;27;20526;-78
2022/06/23 01:01:16;;;;;;;4.97;4.57;;;16.20;97.70;;;;;;5138603;27;20428;-77
2022/06/23 01:03:54;;;;;;;5.20;4.70;;;16.10;97.70;;;;;;5121022;27;20430;-77
2022/06/23 01:06:29;;;;;;;5.20;4.80;;;16.10;97.80;;;;;;5121245;27;20915;-77
2022/06/23 01:09:02;;;;;;;4.93;4.53;;;16.10;97.90;;;;;;5120585;27;20557;-77
2022/06/23 01:11:37;;;;;;;6.53;5.93;;;16.00;97.90;;;;;;5120833;27;20441;-77
2022/06/23 01:14:17;;;;;;;5.47;4.97;;;16.00;98.00;;;;;;5120628;27;20501;-77
2022/06/23 01:16:48;;;;;;;5.97;5.37;;;16.00;98.10;;;;;;5121707;27;20492;-78
2022/06/23 01:19:46;;;;;;;5.67;5.13;;;16.00;98.50;;;;;;5124313;27;20438;-78
2022/06/23 01:22:24;;;;;;;6.03;5.53;;;16.00;98.40;;;;;;5113942;27;20815;-76
2022/06/23 01:25:04;;;;;;;5.67;5.17;;;15.90;98.40;;;;;;5143365;27;20390;-79
2022/06/23 01:27:59;;;;;;;5.73;5.23;;;15.90;98.60;;;;;;5141927;27;20444;-78
2022/06/23 01:30:33;;;;;;;7.20;6.60;;;15.90;98.70;;;;;;5121266;27;20533;-80
2022/06/23 01:33:13;;;;;;;6.50;5.87;;;15.80;98.80;;;;;;5122340;27;20456;-80
2022/06/23 01:35:46;;;;;;;6.97;6.37;;;15.80;98.90;;;;;;5120973;27;20409;-78
2022/06/23 01:38:19;;;;;;;7.43;6.83;;;15.80;99.00;;;;;;5138873;27;20458;-78
2022/06/23 01:40:52;;;;;;;6.87;6.27;;;15.70;99.00;;;;;;5141085;27;20447;-79
2022/06/23 01:43:27;;;;;;;7.67;6.97;;;15.70;99.10;;;;;;5140451;27;20457;-79
2022/06/23 01:46:01;;;;;;;6.00;5.40;;;15.70;99.10;;;;;;5139626;27;20962;-77
2022/06/23 01:48:53;;;;;;;7.07;6.47;;;15.70;99.20;;;;;;5120568;27;20586;-78
2022/06/23 01:51:25;;;;;;;6.57;5.97;;;15.60;99.20;;;;;;5119576;27;20482;-77
2022/06/23 01:53:55;;;;;;;8.17;7.37;;;15.60;99.20;;;;;;5119477;27;20409;-78
2022/06/23 01:56:39;;;;;;;6.80;6.20;;;15.60;99.60;;;;;;5120281;27;20454;-77
2022/06/23 01:59:34;;;;;;;8.77;7.07;;;15.60;99.40;;;;;;5119487;27;20443;-78
2022/06/23 02:02:19;;;;;;;7.17;6.57;;;15.60;99.50;;;;;;5120289;27;20483;-77
2022/06/23 02:04:55;;;;;;;6.97;6.37;;;15.50;99.50;;;;;;5120108;27;20423;-79
2022/06/23 02:07:30;;;;;;;6.97;6.27;;;15.50;99.50;;;;;;5119714;27;20468;-77
2022/06/23 02:10:04;;;;;;;7.57;6.87;;;15.40;99.50;;;;;;5119383;27;20484;-77
2022/06/23 02:12:41;;;;;;;10.53;7.00;;;15.40;99.60;;;;;;5118741;27;20430;-79
2022/06/23 02:15:19;;;;;;;7.57;6.90;;;15.40;99.70;;;;;;5119726;27;20415;-78
2022/06/23 02:17:51;;;;;;;7.10;6.50;;;15.40;99.70;;;;;;5118230;27;20443;-77
2022/06/23 02:20:31;;;;;;;7.03;6.43;;;15.40;99.70;;;;;;5119753;27;20482;-78
2022/06/23 02:23:11;;;;;;;8.17;7.43;;;15.30;99.70;;;;;;5118462;27;20500;-78
2022/06/23 02:25:48;;;;;;;7.67;6.90;;;15.30;99.70;;;;;;5119499;27;20417;-77
2022/06/23 02:28:26;;;;;;;7.10;6.47;;;15.30;99.90;;;;;;5118909;27;20476;-77
2022/06/23 02:31:02;;;;;;;8.00;7.30;;;15.30;99.80;;;;;;5118180;27;20447;-78
2022/06/23 02:33:37;;;;;;;7.97;7.30;;;15.30;99.90;;;;;;5137704;27;20393;-76
2022/06/23 02:36:25;;;;;;;8.00;7.30;;;15.20;99.90;;;;;;5137621;27;20428;-76
2022/06/23 02:38:57;;;;;;;8.73;7.93;;;15.20;99.90;;;;;;5118768;27;20530;-79
2022/06/23 02:41:32;;;;;;;8.77;7.93;;;15.20;99.90;;;;;;5118250;27;20547;-77
2022/06/23 02:44:15;;;;;;;7.70;7.10;;;15.20;99.90;;;;;;5117902;27;20512;-76
2022/06/23 02:47:05;;;;;;;8.50;7.80;;;15.20;99.90;;;;;;5118963;27;20507;-77
2022/06/23 02:49:59;;;;;;;7.70;7.00;;;15.10;99.90;;;;;;5118704;27;20417;-78
2022/06/23 02:52:48;;;;;;;8.10;7.30;;;15.10;99.90;;;;;;5118436;27;20417;-78
2022/06/23 02:55:46;;;;;;;7.13;6.53;;;15.10;99.90;;;;;;5139288;27;20965;-79
2022/06/23 02:58:18;;;;;;;7.17;6.57;;;15.10;99.90;;;;;;5117880;27;20531;-78
2022/06/23 03:00:51;;;;;;;8.13;7.40;;;15.00;99.90;;;;;;5118389;27;21009;-79
2022/06/23 03:03:26;;;;;;;9.30;8.50;;;15.00;99.90;;;;;;5118306;27;20521;-76
2022/06/23 03:06:00;;;;;;;8.30;7.60;;;15.00;99.90;;;;;;5117512;27;20446;-77
2022/06/23 03:08:33;;;;;;;8.03;7.30;;;15.00;99.90;;;;;;5118881;27;20523;-77
2022/06/23 03:11:05;;;;;;;9.23;8.33;;;15.00;99.90;;;;;;5137014;27;20427;-78
2022/06/23 03:13:42;;;;;;;8.13;7.43;;;15.00;99.90;;;;;;5138042;27;20421;-77
2022/06/23 03:16:19;;;;;;;9.20;8.40;;;14.90;99.90;;;;;;5136825;27;20477;-77
2022/06/23 03:18:56;;;;;;;8.43;7.63;;;14.90;99.90;;;;;;5135684;27;20541;-77
2022/06/23 03:21:29;;;;;;;9.10;8.33;;;14.90;99.90;;;;;;5117488;27;21017;-76
2022/06/23 03:24:04;;;;;;;10.33;8.63;;;14.90;99.90;;;;;;5117699;27;20427;-77
2022/06/23 03:26:40;;;;;;;10.93;9.93;;;14.90;99.90;;;;;;5136707;27;20475;-80
2022/06/23 03:29:17;;;;;;;14.50;13.00;;;14.90;99.90;;;;;;5118037;27;20416;-77
2022/06/23 03:31:52;;;;;;;12.83;11.67;;;14.80;99.90;;;;;;5138048;27;20723;-79
2022/06/23 03:34:28;;;;;;;10.20;9.30;;;14.80;99.90;;;;;;5118666;27;20409;-78
2022/06/23 03:37:02;;;;;;;11.03;10.03;;;14.80;99.90;;;;;;5118048;27;20442;-78
2022/06/23 03:42:26;;;;;;;10.13;9.23;;;14.80;99.90;;;;;;5117288;27;20465;-78
2022/06/23 03:45:00;;;;;;;10.80;9.90;;;14.80;99.90;;;;;;5136919;27;20937;-79
2022/06/23 03:47:37;;;;;;;10.27;9.37;;;14.90;99.90;;;;;;5119292;27;20821;-79
2022/06/23 03:50:19;;;;;;;11.17;10.07;;;14.90;99.90;;;;;;5137654;27;20419;-78
2022/06/23 03:52:53;;;;;;;11.60;10.60;;;14.90;99.90;;;;;;5118992;27;20435;-79
2022/06/23 03:55:25;;;;;;;10.73;9.73;;;14.80;99.90;;;;;;5119563;27;20440;-78
2022/06/23 03:57:57;;;;;;;11.70;10.60;;;14.90;99.90;;;;;;5118220;27;20451;-79
2022/06/23 04:00:33;;;;;;;12.40;11.30;;;14.90;99.90;;;;;;5137981;27;20422;-77
2022/06/23 04:03:13;;;;;;;11.07;10.07;;;14.90;99.90;;;;;;5137930;27;20481;-79
2022/06/23 04:06:29;;;;;;;12.10;11.10;;;14.90;99.90;;;;;;5119730;28;20442;-77
2022/06/23 04:09:07;;;;;;;13.03;11.90;;;14.90;99.90;;;;;;5119064;28;20462;-78
2022/06/23 04:11:46;;;;;;;12.00;10.90;;;14.90;99.90;;;;;;5137369;28;20746;-79
2022/06/23 04:14:28;;;;;;;12.23;11.03;;;14.90;99.90;;;;;;5137784;28;20450;-80
2022/06/23 04:17:08;;;;;;;13.10;11.90;;;14.90;99.90;;;;;;5118274;28;20874;-78
2022/06/23 04:19:39;;;;;;;12.90;11.70;;;14.90;99.90;;;;;;5118687;28;20417;-79
2022/06/23 04:22:11;;;;;;;12.37;11.27;;;14.90;99.90;;;;;;5119971;28;20867;-77
2022/06/23 04:24:46;;;;;;;11.60;10.63;;;14.90;99.90;;;;;;5138233;28;20401;-78
2022/06/23 04:27:21;;;;;;;13.73;12.43;;;15.00;99.90;;;;;;5121770;27;20446;-78
2022/06/23 04:29:52;;;;;;;11.60;10.60;;;15.00;99.90;;;;;;5123860;27;20443;-78
2022/06/23 04:32:24;;;;;;;12.73;11.60;;;15.00;99.90;;;;;;5123984;27;20891;-79
2022/06/23 04:34:57;;;;;;;12.70;11.60;;;15.00;99.90;;;;;;5141886;27;20390;-78
2022/06/23 04:37:35;;;;;;;13.23;12.13;;;15.00;99.90;;;;;;5141759;27;20437;-79
2022/06/23 04:40:15;;;;;;;13.07;11.97;;;15.00;99.90;;;;;;5124277;27;20416;-80
2022/06/23 04:42:48;;;;;;;11.67;10.67;;;15.00;99.90;;;;;;5124158;27;20439;-80
2022/06/23 04:45:53;;;;;;;12.57;11.43;;;15.00;99.90;;;;;;5123471;27;20445;-79
2022/06/23 04:48:27;;;;;;;12.50;11.40;;;15.10;99.90;;;;;;5099817;27;20478;-79
2022/06/23 04:51:00;;;;;;;14.40;13.10;;;15.10;99.90;;;;;;5123252;27;20438;-80
2022/06/23 04:53:46;;;;;;;12.33;11.17;;;15.10;99.90;;;;;;5141444;27;20401;-79
2022/06/23 04:56:24;;;;;;;13.23;11.93;;;15.10;99.90;;;;;;5123122;27;20556;-80
2022/06/23 04:58:56;;;;;;;13.10;11.93;;;15.20;99.90;;;;;;5140857;27;20473;-78
2022/06/23 05:01:28;;;;;;;14.30;12.90;;;15.20;99.90;;;;;;5142089;27;20469;-79
2022/06/23 05:03:59;;;;;;;13.33;12.23;;;15.20;99.90;;;;;;5124466;27;20452;-79
2022/06/23 05:06:37;;;;;;;12.00;10.90;;;15.30;99.90;;;;;;5121831;27;20445;-79
2022/06/23 05:09:14;;;;;;;13.13;11.93;;;15.30;99.90;;;;;;5140999;27;20549;-79
2022/06/23 05:11:47;;;;;;;13.80;12.40;;;15.40;99.90;;;;;;5122507;27;20412;-79
2022/06/23 05:14:21;;;;;;;14.97;13.50;;;15.40;99.90;;;;;;5122330;27;20446;-78
2022/06/23 05:16:52;;;;;;;12.87;11.57;;;15.50;99.90;;;;;;5139899;27;20450;-79
2022/06/23 05:19:26;;;;;;;13.10;11.80;;;15.50;99.90;;;;;;5120598;27;20450;-77
2022/06/23 05:21:57;;;;;;;13.67;12.47;;;15.60;99.90;;;;;;5120971;27;20462;-79
2022/06/23 05:24:29;;;;;;;12.83;11.60;;;15.60;99.90;;;;;;5120346;27;20939;-77
2022/06/23 05:27:01;;;;;;;14.10;12.70;;;15.70;99.90;;;;;;5139848;27;20518;-79
2022/06/23 05:29:35;;;;;;;12.43;11.23;;;15.70;99.90;;;;;;5139625;27;20873;-79
2022/06/23 05:32:12;;;;;;;13.43;12.13;;;15.80;99.90;;;;;;5120673;27;20444;-78
2022/06/23 05:34:48;;;;;;;13.23;12.10;;;15.90;99.90;;;;;;5139769;27;20776;-77
2022/06/23 05:37:25;;;;;;;11.93;11.00;;;16.10;99.90;;;;;;5120845;27;20519;-78
2022/06/23 05:40:03;;;;;;;12.90;10.90;;;16.20;99.90;;;;;;5121226;27;20470;-78
2022/06/23 05:42:32;;;;;;;12.67;11.47;;;16.40;99.90;;;;;;5140417;27;20457;-81
2022/06/23 05:45:05;;;;;;;12.47;11.37;;;16.60;99.90;;;;;;5121333;27;20534;-79
2022/06/23 05:47:34;;;;;;;10.97;9.97;;;16.90;99.90;;;;;;5121646;27;20474;-78
2022/06/23 05:50:07;;;;;;;12.03;11.03;;;17.20;99.90;;;;;;5121018;27;20434;-79
2022/06/23 05:52:43;;;;;;;10.70;9.80;;;17.40;99.90;;;;;;5121371;27;21018;-79
2022/06/23 05:55:20;;;;;;;10.90;9.90;;;17.70;99.90;;;;;;5121437;27;20525;-80
2022/06/23 05:57:53;;;;;;;11.27;9.60;;;18.00;99.90;;;;;;5140474;27;20472;-78
2022/06/23 06:00:28;;;;;;;9.77;8.87;;;18.40;99.90;;;;;;5121162;27;20457;-80
2022/06/23 06:03:01;;;;;;;11.17;9.13;;;18.70;99.90;;;;;;5120123;27;20477;-76
2022/06/23 06:05:33;;;;;;;9.67;8.83;;;19.00;99.90;;;;;;5139396;27;20953;-78
2022/06/23 06:08:05;;;;;;;10.17;9.27;;;19.30;99.90;;;;;;5139412;27;20565;-80
2022/06/23 06:10:36;;;;;;;8.13;7.43;;;19.70;99.90;;;;;;5121188;27;20474;-81
2022/06/23 06:13:08;;;;;;;8.87;7.97;;;20.00;99.90;;;;;;5121330;27;20486;-80
2022/06/23 06:15:41;;;;;;;8.60;7.80;;;20.30;99.90;;;;;;5139483;27;20419;-79
2022/06/23 06:18:24;;;;;;;8.73;7.93;;;20.60;99.90;;;;;;5120135;27;20478;-78
2022/06/23 06:20:55;;;;;;;8.27;7.53;;;20.90;99.90;;;;;;5120994;27;20438;-80
2022/06/23 06:23:31;;;;;;;10.43;8.33;;;21.20;99.90;;;;;;5121215;27;20513;-79
2022/06/23 06:26:01;;;;;;;8.30;7.40;;;21.40;99.90;;;;;;5138905;27;20418;-78
2022/06/23 06:28:32;;;;;;;8.10;7.40;;;21.70;99.90;;;;;;5120151;27;20470;-79
2022/06/23 06:31:06;;;;;;;9.30;7.73;;;21.90;99.90;;;;;;5139122;27;20415;-81
2022/06/23 06:33:45;;;;;;;8.17;7.37;;;22.20;99.90;;;;;;5122376;27;20438;-80
2022/06/23 06:36:26;;;;;;;8.20;6.47;;;22.40;99.90;;;;;;5122929;27;20438;-80
2022/06/23 06:38:59;;;;;;;9.00;8.10;;;22.60;99.90;;;;;;5122303;27;20476;-82
2022/06/23 06:41:29;;;;;;;8.17;7.47;;;22.80;99.90;;;;;;5122391;27;20533;-81
2022/06/23 06:43:58;;;;;;;7.63;6.90;;;23.00;99.90;;;;;;5140703;27;20533;-81
2022/06/23 06:46:27;;;;;;;7.80;7.10;;;23.20;99.90;;;;;;5122410;27;20541;-82
2022/06/23 06:48:56;;;;;;;7.73;6.50;;;23.40;99.90;;;;;;5139959;27;21020;-82
2022/06/23 06:51:29;;;;;;;9.40;6.50;;;23.60;99.90;;;;;;5122537;27;20470;-81
2022/06/23 06:54:01;;;;;;;6.70;6.10;;;23.80;99.90;;;;;;5141164;27;20411;-82
2022/06/23 06:56:44;;;;;;;7.13;6.50;;;24.00;99.90;;;;;;5122220;27;20431;-80
2022/06/23 06:59:18;;;;;;;7.50;6.90;;;24.30;99.90;;;;;;5124628;27;20481;-80
2022/06/23 07:01:51;;;;;;;8.93;6.73;;;24.40;99.90;;;;;;5123113;27;20545;-81
2022/06/23 07:04:25;;;;;;;8.60;7.13;;;24.60;99.90;;;;;;5140857;27;20462;-81
2022/06/23 07:06:57;;;;;;;7.07;6.37;;;24.70;99.80;;;;;;5122795;27;20439;-82
2022/06/23 07:09:32;;;;;;;8.37;7.67;;;24.90;99.50;;;;;;5123230;27;20510;-81
2022/06/23 07:12:09;;;;;;;7.33;6.63;;;25.10;99.10;;;;;;5122193;27;20454;-83
2022/06/23 07:14:44;;;;;;;8.73;7.40;;;25.30;98.90;;;;;;5121428;27;20537;-82
2022/06/23 07:17:20;;;;;;;7.27;6.57;;;25.40;98.70;;;;;;5141503;27;20537;-82
2022/06/23 07:19:54;;;;;;;6.93;6.33;;;25.60;98.30;;;;;;5122305;27;20467;-83
2022/06/23 07:22:27;;;;;;;7.43;6.70;;;25.70;97.90;;;;;;5123091;27;20438;-82
2022/06/23 07:25:01;;;;;;;8.43;6.37;;;25.80;97.60;;;;;;5144495;27;20462;-80
2022/06/23 07:27:37;;;;;;;8.13;7.30;;;25.90;97.40;;;;;;5123836;27;20890;-81
2022/06/23 07:30:07;;;;;;;8.90;6.20;;;26.00;97.20;;;;;;5145936;27;20414;-81
2022/06/23 07:32:44;;;;;;;8.87;6.60;;;26.10;96.90;;;;;;5145738;27;20510;-81
2022/06/23 07:35:22;;;;;;;7.57;6.83;;;26.20;96.60;;;;;;5145057;27;20419;-82
2022/06/23 07:37:57;;;;;;;8.17;6.80;;;26.30;96.40;;;;;;5126599;27;20462;-81
2022/06/23 07:40:28;;;;;;;6.87;6.37;;;26.40;96.20;;;;;;5126488;27;20475;-78
2022/06/23 07:43:09;;;;;;;7.67;6.70;;;26.50;96.00;;;;;;5127669;28;20426;-80
2022/06/23 07:45:44;;;;;;;6.97;6.37;;;26.60;95.60;;;;;;5126995;28;20434;-80
2022/06/23 07:48:12;;;;;;;7.17;6.47;;;26.60;95.30;;;;;;5127202;27;20462;-79
2022/06/23 07:50:40;;;;;;;7.70;6.13;;;26.60;95.10;;;;;;5128405;27;20865;-82
2022/06/23 07:53:15;;;;;;;6.37;5.77;;;26.70;95.30;;;;;;5127915;28;20450;-82
2022/06/23 07:55:45;;;;;;;6.33;5.73;;;26.80;95.00;;;;;;5127870;27;20442;-79
2022/06/23 07:58:21;;;;;;;8.40;6.33;;;26.90;95.00;;;;;;5127734;27;20517;-79
2022/06/23 08:00:54;;;;;;;6.70;6.10;;;27.00;94.40;;;;;;5127068;28;20466;-80
2022/06/23 08:03:30;;;;;;;6.43;5.93;;;27.00;94.30;;;;;;5125952;27;20493;-82
2022/06/23 08:06:02;;;;;;;8.63;6.53;;;27.00;94.20;;;;;;5142727;27;20417;-79
2022/06/23 08:08:34;;;;;;;6.90;6.30;;;27.10;94.00;;;;;;5122272;28;20527;-80
2022/06/23 08:13:58;;;;;;;6.90;6.20;;;27.30;93.70;;;;;;5142761;28;20423;-79
2022/06/23 08:19:19;;;;;;;6.00;5.33;;;27.50;93.50;;;;;;5144498;28;20463;-80
2022/06/23 08:21:53;;;;;;;6.87;6.23;;;27.60;93.10;;;;;;5144185;28;20418;-80
2022/06/23 08:24:24;;;;;;;5.07;4.67;;;27.60;92.60;;;;;;5144146;28;20485;-80
2022/06/23 08:26:56;;;;;;;7.30;6.40;;;27.60;92.60;;;;;;5123939;28;20433;-84
2022/06/23 08:29:31;;;;;;;6.10;5.60;;;27.70;92.40;;;;;;5126355;28;20442;-78
2022/06/23 08:32:01;;;;;;;8.20;5.90;;;27.80;92.10;;;;;;5125243;28;20874;-79
2022/06/23 08:34:32;;;;;;;6.10;5.50;;;27.80;92.10;;;;;;5143700;28;20458;-79
2022/06/23 08:37:16;;;;;;;5.97;5.57;;;27.90;91.90;;;;;;5144726;28;20466;-79
2022/06/23 08:39:53;;;;;;;6.60;5.80;;;27.90;91.80;;;;;;5145996;28;20437;-80
2022/06/23 08:42:26;;;;;;;6.40;5.90;;;28.10;91.80;;;;;;5126561;28;20430;-81
2022/06/23 08:45:02;;;;;;;6.70;6.10;;;28.20;91.70;;;;;;5126942;28;20482;-79
2022/06/23 08:47:41;;;;;;;6.73;5.77;;;28.30;91.50;;;;;;5126461;28;20466;-83
2022/06/23 08:50:15;;;;;;;7.00;5.37;;;28.40;91.20;;;;;;5146362;28;20484;-79
2022/06/23 08:52:48;;;;;;;6.00;5.47;;;28.50;91.10;;;;;;5128456;28;20430;-81
2022/06/23 08:55:22;;;;;;;6.30;5.57;;;28.50;90.90;;;;;;5145899;28;20501;-79
2022/06/23 08:58:18;;;;;;;7.13;5.30;;;28.60;91.10;;;;;;5146538;28;20462;-79
2022/06/23 09:00:55;;;;;;;5.97;5.33;;;28.70;90.40;;;;;;5128438;28;20469;-81
2022/06/23 09:03:43;;;;;;;4.80;4.43;;;28.70;90.20;;;;;;5128926;28;20435;-83
2022/06/23 09:06:21;;;;;;;6.53;5.97;;;28.70;90.10;;;;;;5144911;28;20423;-82
2022/06/23 09:08:55;;;;;;;6.33;5.30;;;28.80;90.30;;;;;;5128991;28;20507;-80
2022/06/23 09:11:36;;;;;;;5.13;4.63;;;28.90;90.10;;;;;;5147798;27;20468;-80
2022/06/23 09:14:26;;;;;;;5.97;4.70;;;29.00;89.50;;;;;;5132719;27;20506;-80
2022/06/23 09:17:14;;;;;;;6.23;5.83;;;29.20;89.10;;;;;;5132224;27;20476;-82
2022/06/23 09:19:55;;;;;;;5.97;4.73;;;29.20;88.80;;;;;;5132412;27;20435;-80
2022/06/23 09:22:51;;;;;;;5.07;4.70;;;29.30;88.60;;;;;;5132082;27;20485;-82
2022/06/23 09:25:32;;;;;;;7.40;4.90;;;29.40;88.20;;;;;;5131949;27;20483;-82
2022/06/23 09:28:15;;;;;;;7.90;4.40;;;29.40;88.30;;;;;;5131969;27;20533;-81
2022/06/23 09:30:56;;;;;;;5.53;4.60;;;29.50;87.30;;;;;;5131371;27;20447;-79
2022/06/23 09:33:37;;;;;;;5.13;4.60;;;29.60;87.20;;;;;;5130787;27;20947;-79
2022/06/23 09:36:32;;;;;;;4.97;4.47;;;29.70;86.70;;;;;;5149140;27;20415;-80
2022/06/23 09:39:19;;;;;;;8.23;5.07;;;29.70;85.80;;;;;;5149532;27;20459;-81
2022/06/23 09:42:12;;;;;;;5.40;4.80;;;29.70;85.20;;;;;;5130606;27;20494;-79
2022/06/23 09:44:55;;;;;;;4.23;3.83;;;29.80;85.00;;;;;;5130956;27;20561;-81
2022/06/23 09:47:50;;;;;;;5.23;4.80;;;29.80;85.00;;;;;;5130403;27;20469;-80
2022/06/23 09:50:35;;;;;;;3.63;3.33;;;29.90;84.70;;;;;;5130344;27;20450;-80
2022/06/23 09:53:32;;;;;;;5.80;5.23;;;30.00;83.90;;;;;;5130866;27;20802;-79
2022/06/23 09:56:32;;;;;;;4.40;4.00;;;30.00;83.10;;;;;;5125011;27;20495;-81
2022/06/23 09:59:47;;;;;;;4.47;3.90;;;30.10;81.70;;;;;;5130700;27;20469;-83
2022/06/23 10:02:26;;;;;;;4.03;3.73;;;30.00;81.30;;;;;;5048801;28;20821;-82
2022/06/23 10:05:12;;;;;;;4.00;3.70;;;30.10;81.00;;;;;;5042506;28;20481;-81
2022/06/23 10:08:04;;;;;;;5.43;3.30;;;30.10;80.70;;;;;;5099266;27;20487;-80
2022/06/23 10:10:48;;;;;;;4.77;3.47;;;30.20;79.90;;;;;;5128389;27;20450;-79
2022/06/23 10:13:30;;;;;;;6.07;3.20;;;30.20;79.90;;;;;;5147655;27;20523;-81
2022/06/23 10:16:07;;;;;;;7.70;3.47;;;30.30;79.30;;;;;;5130118;27;20987;-79
2022/06/23 10:19:10;;;;;;;4.77;3.90;;;30.30;78.90;;;;;;5129711;27;20466;-81
2022/06/23 10:21:49;;;;;;;4.10;3.70;;;30.40;78.00;;;;;;5147100;27;20417;-81
2022/06/23 10:24:43;;;;;;;3.70;3.40;;;30.40;77.90;;;;;;5148464;27;20452;-83
2022/06/23 10:27:27;;;;;;;3.10;2.90;;;30.50;76.90;;;;;;5128847;27;20477;-83
2022/06/23 10:30:08;;;;;;;3.70;3.40;;;30.50;76.20;;;;;;5128807;27;20790;-80
2022/06/23 10:33:13;;;;;;;3.60;3.30;;;30.50;75.50;;;;;;5130504;27;20904;-82
2022/06/23 10:35:52;;;;;;;3.87;3.50;;;30.50;75.10;;;;;;5131403;27;20441;-82
2022/06/23 10:38:40;;;;;;;4.67;3.07;;;30.50;75.60;;;;;;5148438;27;20471;-81
2022/06/23 10:41:35;;;;;;;3.43;3.03;;;30.50;75.90;;;;;;5129792;27;20474;-81
2022/06/23 10:44:40;;;;;;;3.80;3.47;;;30.60;75.10;;;;;;5148217;27;20517;-81
2022/06/23 10:47:20;;;;;;;3.50;3.20;;;30.70;74.40;;;;;;5129064;27;20557;-80
2022/06/23 10:50:17;;;;;;;3.23;2.93;;;30.80;74.40;;;;;;5131484;27;20435;-80
2022/06/23 10:53:21;;;;;;;4.10;3.47;;;30.90;74.00;;;;;;5130375;27;20517;-81
2022/06/23 10:56:10;;;;;;;3.80;3.40;;;31.00;73.50;;;;;;5132743;27;20442;-82
2022/06/23 10:59:05;;;;;;;3.70;3.40;;;31.10;73.10;;;;;;5130695;27;20471;-80
2022/06/23 11:01:55;;;;;;;3.40;3.10;;;31.10;71.90;;;;;;5131311;27;20465;-81
2022/06/23 11:04:52;;;;;;;3.80;2.97;;;31.10;72.80;;;;;;5131179;27;20478;-80
2022/06/23 11:07:41;;;;;;;4.10;2.93;;;31.20;71.90;;;;;;5149909;27;20462;-81
2022/06/23 11:10:30;;;;;;;3.23;2.97;;;31.20;71.60;;;;;;5132150;27;20435;-81
2022/06/23 11:13:09;;;;;;;3.30;3.10;;;31.20;71.70;;;;;;5130588;27;20487;-84
2022/06/23 11:15:46;;;;;;;3.57;3.00;;;31.30;71.90;;;;;;5130808;27;20964;-80
2022/06/23 11:18:38;;;;;;;3.30;3.00;;;31.30;71.10;;;;;;5130209;27;20491;-81
2022/06/23 11:21:27;;;;;;;10.40;9.50;;;31.30;70.60;;;;;;5149767;27;20415;-81
2022/06/23 11:24:02;;;;;;;3.40;2.83;;;31.40;70.20;;;;;;5148505;27;20442;-81
2022/06/23 11:26:44;;;;;;;3.50;2.70;;;31.40;69.60;;;;;;5130891;27;20465;-80
2022/06/23 11:29:30;;;;;;;4.67;3.33;;;31.40;69.10;;;;;;5128258;27;20450;-80
2022/06/23 11:32:19;;;;;;;4.00;3.63;;;31.50;68.50;;;;;;5128282;27;20419;-79
2022/06/23 11:35:04;;;;;;;3.73;3.43;;;31.40;68.30;;;;;;5147963;27;20433;-82
2022/06/23 11:37:50;;;;;;;2.80;2.60;;;31.40;68.30;;;;;;5150375;27;20530;-82
2022/06/23 11:40:32;;;;;;;2.90;2.70;;;31.50;68.40;;;;;;5133225;27;20456;-83
2022/06/23 11:43:20;;;;;;;2.90;2.70;;;31.50;68.10;;;;;;5130633;27;20443;-82
2022/06/23 11:46:09;;;;;;;5.00;3.20;;;31.50;67.60;;;;;;5129096;27;20859;-80
2022/06/23 11:49:01;;;;;;;3.30;3.00;;;31.60;67.40;;;;;;5144124;27;20503;-81
2022/06/23 11:51:50;;;;;;;3.63;3.23;;;31.60;66.90;;;;;;5140553;27;20423;-81
2022/06/23 11:54:34;;;;;;;7.10;5.00;;;31.60;67.20;;;;;;5123422;27;20560;-81
2022/06/23 11:57:21;;;;;;;4.20;3.13;;;31.60;67.10;;;;;;5144330;27;20537;-81
2022/06/23 12:00:00;;;;;;;5.37;2.77;;;31.60;67.10;;;;;;5127702;27;20446;-82
2022/06/23 12:03:00;;;;;;;4.10;2.70;;;31.60;66.60;;;;;;5143623;27;20868;-80
2022/06/23 12:05:39;;;;;;;2.90;2.70;;;31.70;66.60;;;;;;5123972;27;20891;-80
2022/06/23 12:08:43;;;;;;;3.40;3.10;;;31.70;65.70;;;;;;5124116;28;20469;-82
2022/06/23 12:11:11;;;;;;;5.60;2.80;;;31.70;64.40;;;;;;5139360;28;20495;-81
2022/06/23 12:13:41;;;;;;;2.70;2.43;;;31.60;65.20;;;;;;5123244;28;21019;-80
2022/06/23 12:16:12;;;;;;;3.93;3.60;;;31.60;64.50;;;;;;5121824;28;20491;-81
2022/06/23 12:18:47;;;;;;;3.20;3.00;;;31.60;64.30;;;;;;5122203;28;20466;-81
2022/06/23 12:21:35;;;;;;;4.27;3.03;;;31.60;64.40;;;;;;5122089;28;20446;-78
2022/06/23 12:24:14;;;;;;;3.50;3.20;;;31.70;63.90;;;;;;5139520;28;20442;-81
2022/06/23 12:26:48;;;;;;;3.30;2.80;;;31.70;63.50;;;;;;5140156;28;20450;-79
2022/06/23 12:29:26;;;;;;;3.30;2.97;;;31.70;63.10;;;;;;5122288;28;20430;-79
2022/06/23 12:32:01;;;;;;;3.33;3.03;;;31.70;63.20;;;;;;5122870;28;20514;-78
2022/06/23 12:34:38;;;;;;;3.30;2.70;;;31.70;63.20;;;;;;5122831;28;20446;-79
2022/06/23 12:37:26;;;;;;;4.70;2.83;;;31.70;62.70;;;;;;5141875;28;20496;-79
2022/06/23 12:40:02;;;;;;;4.43;3.03;;;31.70;61.50;;;;;;5142036;28;20502;-80
2022/06/23 12:42:35;;;;;;;2.43;2.23;;;31.60;60.90;;;;;;5123790;28;20442;-80
2022/06/23 12:45:31;;;;;;;4.83;2.50;;;31.60;60.30;;;;;;5123779;28;20434;-79
2022/06/23 12:48:17;;;;;;;7.10;3.10;;;31.60;60.50;;;;;;5125023;27;20503;-78
2022/06/23 12:50:56;;;;;;;3.23;2.50;;;31.60;60.30;;;;;;5145133;27;20406;-80
2022/06/23 12:53:50;;;;;;;2.90;2.70;;;31.50;60.00;;;;;;5146736;27;20414;-79
2022/06/23 12:56:36;;;;;;;3.40;3.10;;;31.50;59.90;;;;;;5146355;27;20415;-80
2022/06/23 12:59:10;;;;;;;4.33;2.30;;;31.50;59.30;;;;;;5127003;27;20531;-79
2022/06/23 13:01:42;;;;;;;2.40;1.87;;;31.50;58.90;;;;;;5127533;27;20966;-79
2022/06/23 13:04:17;;;;;;;3.00;2.47;;;31.50;58.20;;;;;;5145537;27;20521;-79
2022/06/23 13:06:53;;;;;;;5.10;2.47;;;31.60;57.90;;;;;;5147314;27;20457;-79
2022/06/23 13:09:31;;;;;;;3.10;2.73;;;31.60;57.90;;;;;;5130061;27;20508;-80
2022/06/23 13:12:25;;;;;;;2.83;2.63;;;31.70;57.60;;;;;;5129201;27;20461;-79
2022/06/23 13:14:57;;;;;;;3.70;2.60;;;31.70;57.50;;;;;;5147929;27;20435;-78
2022/06/23 13:17:37;;;;;;;3.03;2.60;;;31.80;57.20;;;;;;5128121;27;20492;-80
2022/06/23 13:20:16;;;;;;;2.40;2.20;;;31.80;56.70;;;;;;5148757;27;20445;-80
2022/06/23 13:22:47;;;;;;;3.27;2.73;;;31.80;56.40;;;;;;5129999;27;20441;-79
2022/06/23 13:25:24;;;;;;;2.73;2.10;;;31.80;56.30;;;;;;5129629;27;20435;-80
2022/06/23 13:27:54;;;;;;;2.33;2.10;;;31.80;56.10;;;;;;5128221;27;20543;-79
2022/06/23 13:30:45;;;;;;;2.60;2.23;;;31.80;56.20;;;;;;5147716;27;20449;-80
2022/06/23 13:33:26;;;;;;;3.13;2.83;;;31.80;56.30;;;;;;5129753;27;20931;-79
2022/06/23 13:36:02;;;;;;;3.27;2.80;;;31.80;56.30;;;;;;5146880;27;20415;-80
2022/06/23 13:38:41;;;;;;;2.80;2.27;;;31.80;55.90;;;;;;5147081;27;20462;-79
2022/06/23 13:41:20;;;;;;;2.80;2.03;;;31.80;55.10;;;;;;5127994;27;20441;-80
2022/06/23 13:43:56;;;;;;;3.57;2.43;;;31.80;54.60;;;;;;5141467;27;20422;-79
2022/06/23 13:46:32;;;;;;;2.60;2.10;;;31.80;54.10;;;;;;5143528;27;20833;-79
2022/06/23 13:49:11;;;;;;;2.07;1.97;;;31.80;53.90;;;;;;5125224;27;20838;-79
2022/06/23 13:51:55;;;;;;;2.57;2.00;;;31.80;53.50;;;;;;5145556;27;20419;-79